Time;durP1;ratioP1;P1;durP2;ratioP2;P2;SDS_P1;SDS_P2;PMS_P1;PMS_P2;Temp;Humidity;BMP_temperature;BMP_pressure;BME280_temperature;BME280_humidity;BME280_pressure;Samples;Min_cycle;Max_cycle;Signal;HPM_P1;HPM_P2
2022/07/30 00:01:05;;;;;;;9.60;8.25;;;;;18.90;96329.00;;;;8349458;28;20232;-66
2022/07/30 00:05:09;;;;;;;15.27;9.77;;;;;18.90;96329.00;;;;8347201;28;20294;-68
2022/07/30 00:09:12;;;;;;;15.70;9.65;;;;;19.00;96328.00;;;;8347846;28;20227;-67
2022/07/30 00:13:17;;;;;;;16.52;9.68;;;;;19.10;96319.00;;;;8350507;28;20216;-66
2022/07/30 00:17:20;;;;;;;17.33;9.75;;;;;19.10;96323.00;;;;8346574;28;20240;-68
2022/07/30 00:21:24;;;;;;;13.73;10.13;;;;;19.20;96325.00;;;;8349747;28;20278;-71
2022/07/30 00:25:38;;;;;;;11.60;10.13;;;;;19.20;96317.00;;;;8349066;28;20335;-68
2022/07/30 00:29:43;;;;;;;14.50;9.95;;;;;19.30;96309.00;;;;8342850;28;20229;-68
2022/07/30 00:33:47;;;;;;;13.95;9.70;;;;;19.30;96322.00;;;;8348077;28;20228;-69
2022/07/30 00:37:50;;;;;;;16.17;9.75;;;;;19.40;96314.00;;;;8342589;28;20233;-65
2022/07/30 00:41:55;;;;;;;13.75;10.52;;;;;19.40;96296.00;;;;8349537;28;20235;-67
2022/07/30 00:46:00;;;;;;;15.55;10.18;;;;;19.50;96307.00;;;;8350461;28;20251;-69
2022/07/30 00:50:04;;;;;;;19.55;13.32;;;;;19.40;96316.00;;;;8346513;28;20313;-71
2022/07/30 00:54:07;;;;;;;16.15;11.13;;;;;19.40;96311.00;;;;8337754;28;20225;-71
2022/07/30 00:58:10;;;;;;;15.98;12.65;;;;;19.40;96315.00;;;;8348099;28;20236;-68
2022/07/30 01:02:15;;;;;;;17.70;13.40;;;;;19.30;96304.00;;;;8345335;28;20235;-69
2022/07/30 01:06:18;;;;;;;17.77;13.07;;;;;19.30;96301.00;;;;8339532;28;20220;-65
2022/07/30 01:10:22;;;;;;;17.45;12.88;;;;;19.30;96303.00;;;;8343286;28;20231;-70
2022/07/30 01:14:25;;;;;;;21.33;12.98;;;;;19.30;96300.00;;;;8343431;28;20217;-67
2022/07/30 01:22:57;;;;;;;16.95;13.40;;;;;19.20;96298.00;;;;8343019;28;20228;-65
2022/07/30 01:27:02;;;;;;;19.20;14.18;;;;;19.20;96302.00;;;;8342223;28;20697;-69
2022/07/30 01:31:09;;;;;;;22.95;14.82;;;;;19.10;96307.00;;;;8344827;28;20220;-66
2022/07/30 01:35:14;;;;;;;22.13;15.13;;;;;19.00;96309.00;;;;8345546;28;20278;-69
2022/07/30 01:39:19;;;;;;;22.92;16.13;;;;;18.90;96301.00;;;;8340209;28;20281;-66
2022/07/30 01:43:25;;;;;;;21.10;15.30;;;;;18.90;96303.00;;;;8346458;28;20310;-67
2022/07/30 01:47:30;;;;;;;25.73;16.75;;;;;18.80;96308.00;;;;8347435;28;20224;-76
2022/07/30 01:51:35;;;;;;;23.48;16.55;;;;;18.80;96307.00;;;;8344553;28;20230;-66
2022/07/30 01:55:41;;;;;;;21.10;15.27;;;;;18.80;96306.00;;;;8346452;28;20228;-69
2022/07/30 01:59:50;;;;;;;21.88;15.48;;;;;18.80;96302.00;;;;8345888;28;20235;-67
2022/07/30 02:03:54;;;;;;;28.02;16.75;;;;;18.70;96299.00;;;;8344235;28;20263;-69
2022/07/30 02:08:06;;;;;;;29.30;17.77;;;;;18.70;96306.00;;;;8340199;28;20228;-67
2022/07/30 02:12:29;;;;;;;30.38;19.60;;;;;18.70;96298.00;;;;8346732;28;20732;-68
2022/07/30 02:16:37;;;;;;;37.60;21.55;;;;;18.70;96298.00;;;;8342673;28;20630;-68
2022/07/30 02:20:45;;;;;;;27.45;18.90;;;;;18.70;96303.00;;;;8345673;28;20235;-70
2022/07/30 02:24:52;;;;;;;32.33;21.38;;;;;18.70;96307.00;;;;8345745;28;20248;-67
2022/07/30 02:28:58;;;;;;;31.05;20.63;;;;;18.70;96305.00;;;;8346080;28;20800;-69
2022/07/30 02:33:07;;;;;;;30.60;20.77;;;;;18.70;96304.00;;;;8344377;28;20239;-69
2022/07/30 02:37:13;;;;;;;33.08;21.55;;;;;18.70;96297.00;;;;8342903;28;20256;-74
2022/07/30 02:41:17;;;;;;;36.92;21.92;;;;;18.60;96295.00;;;;8347110;28;20223;-76
2022/07/30 02:45:23;;;;;;;37.22;22.23;;;;;18.50;96288.00;;;;8345619;28;20307;-70
2022/07/30 02:49:31;;;;;;;42.45;22.23;;;;;18.40;96285.00;;;;8347425;28;20255;-69
2022/07/30 02:53:36;;;;;;;35.45;22.25;;;;;18.30;96294.00;;;;8350110;28;20709;-66
2022/07/30 02:57:42;;;;;;;38.97;23.15;;;;;18.20;96290.00;;;;8350149;28;20232;-68
2022/07/30 03:01:47;;;;;;;34.58;21.45;;;;;18.10;96289.00;;;;8379034;23;20224;-72
2022/07/30 03:05:52;;;;;;;42.80;23.90;;;;;18.00;96295.00;;;;8393037;28;20771;-69
2022/07/30 03:09:57;;;;;;;40.33;23.05;;;;;17.90;96292.00;;;;8406898;28;20219;-69
2022/07/30 03:14:02;;;;;;;40.88;22.15;;;;;17.80;96292.00;;;;8403264;28;20219;-70
2022/07/30 03:18:06;;;;;;;43.05;22.63;;;;;17.70;96293.00;;;;8406553;28;20676;-70
2022/07/30 03:22:12;;;;;;;38.38;22.05;;;;;17.60;96296.00;;;;8401615;28;20219;-69
2022/07/30 03:26:19;;;;;;;37.60;21.90;;;;;17.50;96287.00;;;;8403171;28;20252;-71
2022/07/30 03:30:24;;;;;;;45.15;23.88;;;;;17.50;96287.00;;;;8413662;28;20238;-66
2022/07/30 03:34:27;;;;;;;39.72;22.05;;;;;17.50;96292.00;;;;8411587;28;20234;-69
2022/07/30 03:38:33;;;;;;;41.72;22.73;;;;;17.50;96289.00;;;;8401511;28;20255;-73
2022/07/30 03:42:37;;;;;;;37.42;22.02;;;;;17.50;96294.00;;;;8394717;28;20231;-70
2022/07/30 03:46:42;;;;;;;43.50;23.90;;;;;17.50;96301.00;;;;8403208;28;20303;-68
2022/07/30 03:50:46;;;;;;;39.10;21.52;;;;;17.60;96300.00;;;;8407745;28;20276;-68
2022/07/30 03:54:51;;;;;;;42.47;21.08;;;;;17.50;96301.00;;;;8372817;28;20231;-67
2022/07/30 03:58:55;;;;;;;46.13;23.58;;;;;17.50;96308.00;;;;8400207;28;20228;-67
2022/07/30 04:02:58;;;;;;;38.88;21.83;;;;;17.50;96308.00;;;;8395550;28;20844;-67
2022/07/30 04:07:01;;;;;;;37.47;22.85;;;;;17.50;96324.00;;;;8399006;28;20225;-70
2022/07/30 04:11:06;;;;;;;40.15;23.80;;;;;17.50;96314.00;;;;8380096;28;20294;-71
2022/07/30 04:15:10;;;;;;;40.58;22.48;;;;;17.50;96313.00;;;;8395591;28;21346;-71
2022/07/30 04:19:38;;;;;;;39.63;22.83;;;;;17.50;96310.00;;;;8395238;28;20291;-68
2022/07/30 04:23:43;;;;;;;42.63;21.83;;;;;17.40;96319.00;;;;8394474;28;20298;-67
2022/07/30 04:28:09;;;;;;;47.17;24.33;;;;;17.40;96329.00;;;;8398847;28;20227;-66
2022/07/30 04:32:13;;;;;;;43.20;22.88;;;;;17.40;96329.00;;;;8406938;28;20233;-67
2022/07/30 04:36:16;;;;;;;38.30;22.15;;;;;17.40;96329.00;;;;8405374;28;20310;-71
2022/07/30 04:40:19;;;;;;;43.17;21.55;;;;;17.40;96335.00;;;;8391941;28;20242;-76
2022/07/30 04:44:24;;;;;;;38.17;21.63;;;;;17.50;96338.00;;;;8393611;28;20255;-73
2022/07/30 04:48:27;;;;;;;40.63;21.90;;;;;17.50;96332.00;;;;8389890;28;20234;-68
2022/07/30 04:52:31;;;;;;;45.10;23.02;;;;;17.60;96337.00;;;;8393039;28;20223;-71
2022/07/30 04:56:36;;;;;;;42.13;21.42;;;;;17.80;96339.00;;;;8397953;28;20252;-72
2022/07/30 05:00:43;;;;;;;33.05;19.30;;;;;18.00;96340.00;;;;8397578;28;20314;-69
2022/07/30 05:04:47;;;;;;;32.40;18.90;;;;;18.10;96341.00;;;;8393078;28;20806;-70
2022/07/30 05:08:51;;;;;;;26.38;18.05;;;;;18.30;96340.00;;;;8394141;28;20227;-69
2022/07/30 05:12:54;;;;;;;27.67;17.77;;;;;18.40;96338.00;;;;8389770;28;20290;-70
2022/07/30 05:16:58;;;;;;;26.13;17.40;;;;;18.30;96334.00;;;;8395412;28;20231;-67
2022/07/30 05:21:02;;;;;;;29.73;18.63;;;;;18.40;96345.00;;;;8394986;28;20645;-67
2022/07/30 05:25:06;;;;;;;26.75;17.95;;;;;18.50;96344.00;;;;8392728;28;20316;-73
2022/07/30 05:29:18;;;;;;;24.17;16.15;;;;;18.70;96352.00;;;;8403027;28;20290;-71
2022/07/30 05:33:23;;;;;;;25.17;17.58;;;;;18.90;96345.00;;;;8396054;28;20668;-74
2022/07/30 05:37:44;;;;;;;21.98;15.68;;;;;18.90;96350.00;;;;8392896;28;20238;-70
2022/07/30 05:41:47;;;;;;;20.30;14.82;;;;;19.10;96347.00;;;;8403383;28;20673;-76
2022/07/30 05:45:51;;;;;;;19.35;13.80;;;;;19.30;96360.00;;;;8398239;28;20230;-70
2022/07/30 05:49:56;;;;;;;19.50;13.93;;;;;19.40;96334.00;;;;8401789;28;20449;-68
2022/07/30 05:54:06;;;;;;;18.08;13.73;;;;;19.50;96352.00;;;;8402427;28;20232;-71
2022/07/30 05:58:09;;;;;;;16.65;12.77;;;;;19.60;96358.00;;;;8394697;28;20226;-69
2022/07/30 06:02:13;;;;;;;14.98;12.35;;;;;19.80;96355.00;;;;8392176;28;20323;-70
2022/07/30 06:06:17;;;;;;;15.30;11.07;;;;;20.10;96359.00;;;;8390490;28;20223;-74
2022/07/30 06:10:25;;;;;;;12.88;10.80;;;;;20.40;96359.00;;;;8394099;28;20223;-72
2022/07/30 06:14:28;;;;;;;11.75;9.25;;;;;20.60;96361.00;;;;8398997;28;20255;-69
2022/07/30 06:18:32;;;;;;;13.23;9.55;;;;;20.70;96368.00;;;;8393937;28;20251;-71
2022/07/30 06:22:37;;;;;;;8.82;7.82;;;;;20.90;96357.00;;;;8396131;28;20231;-72
2022/07/30 06:26:40;;;;;;;10.23;8.93;;;;;21.10;96368.00;;;;8399908;28;20238;-71
2022/07/30 06:30:44;;;;;;;9.52;8.50;;;;;21.20;96377.00;;;;8395697;28;20234;-72
2022/07/30 06:34:48;;;;;;;13.00;8.50;;;;;21.40;96377.00;;;;8389400;28;20303;-70
2022/07/30 06:39:03;;;;;;;11.38;8.52;;;;;21.60;96378.00;;;;8397851;28;20259;-71
2022/07/30 06:43:06;;;;;;;11.25;8.50;;;;;21.90;96400.00;;;;8402881;28;20226;-73
2022/07/30 06:47:10;;;;;;;11.00;7.97;;;;;22.00;96392.00;;;;8401038;28;20227;-73
2022/07/30 06:51:14;;;;;;;9.48;8.07;;;;;21.90;96392.00;;;;8398651;28;20254;-72
2022/07/30 06:55:19;;;;;;;10.07;7.78;;;;;21.80;96401.00;;;;8396236;28;20246;-71
2022/07/30 06:59:22;;;;;;;12.52;7.70;;;;;21.90;96403.00;;;;8402948;28;20789;-72
2022/07/30 07:03:26;;;;;;;9.95;8.63;;;;;22.10;96407.00;;;;8401571;28;20219;-74
2022/07/30 07:07:42;;;;;;;11.48;9.85;;;;;22.50;96414.00;;;;8391942;28;20619;-73
2022/07/30 07:12:01;;;;;;;11.55;9.05;;;;;22.60;96404.00;;;;8399225;28;20215;-73
2022/07/30 07:16:09;;;;;;;10.40;9.18;;;;;22.80;96410.00;;;;8399299;28;20280;-70
2022/07/30 07:20:12;;;;;;;12.52;9.65;;;;;22.90;96402.00;;;;8399833;28;20311;-72
2022/07/30 07:24:15;;;;;;;9.75;8.35;;;;;23.20;96404.00;;;;8382328;28;20311;-69
2022/07/30 07:28:20;;;;;;;11.07;8.70;;;;;23.30;96406.00;;;;8400753;28;20261;-69
2022/07/30 07:32:35;;;;;;;10.93;7.50;;;;;23.80;96412.00;;;;8400770;28;20689;-69
2022/07/30 07:36:39;;;;;;;10.23;7.20;;;;;24.50;96405.00;;;;8394792;28;20306;-71
2022/07/30 07:40:42;;;;;;;8.20;7.40;;;;;24.20;96417.00;;;;8408396;28;20684;-73
2022/07/30 07:44:46;;;;;;;16.00;8.55;;;;;24.10;96410.00;;;;8393910;28;20229;-71
2022/07/30 07:48:50;;;;;;;8.07;7.13;;;;;24.80;96411.00;;;;8400408;28;20224;-71
2022/07/30 07:52:53;;;;;;;10.98;8.00;;;;;25.00;96410.00;;;;8404509;28;20224;-71
2022/07/30 07:56:57;;;;;;;9.00;7.47;;;;;25.10;96406.00;;;;8407461;28;20324;-71
2022/07/30 08:01:05;;;;;;;10.90;8.32;;;;;24.80;96412.00;;;;8403229;28;20238;-69
2022/07/30 08:05:11;;;;;;;10.00;7.93;;;;;25.30;96417.00;;;;8415650;28;20764;-70
2022/07/30 08:09:14;;;;;;;8.73;7.38;;;;;25.50;96418.00;;;;8412246;28;20316;-71
2022/07/30 08:13:17;;;;;;;13.63;9.18;;;;;26.40;96422.00;;;;8411858;28;20227;-71
2022/07/30 08:17:43;;;;;;;9.70;7.32;;;;;26.30;96435.00;;;;8417227;28;20222;-68
2022/07/30 08:21:46;;;;;;;7.15;6.50;;;;;26.80;96439.00;;;;8422115;28;20234;-70
2022/07/30 08:25:50;;;;;;;7.95;6.60;;;;;26.80;96437.00;;;;8430219;28;20305;-70
2022/07/30 08:29:55;;;;;;;7.03;6.43;;;;;26.20;96436.00;;;;8410803;28;20313;-68
2022/07/30 08:34:01;;;;;;;8.10;7.30;;;;;26.30;96445.00;;;;8401000;28;20229;-72
2022/07/30 08:38:05;;;;;;;6.90;6.20;;;;;26.80;96439.00;;;;8397882;28;20226;-72
2022/07/30 08:42:08;;;;;;;6.70;6.05;;;;;26.20;96449.00;;;;8399848;28;20220;-70
2022/07/30 08:46:13;;;;;;;6.93;6.22;;;;;26.50;96452.00;;;;8406320;28;20657;-69
2022/07/30 08:50:18;;;;;;;8.13;6.38;;;;;26.50;96445.00;;;;8398163;28;20314;-70
2022/07/30 08:54:22;;;;;;;7.63;6.45;;;;;26.90;96450.00;;;;8393112;28;20223;-69
2022/07/30 08:58:29;;;;;;;6.68;5.90;;;;;27.70;96458.00;;;;8395669;28;20265;-72
2022/07/30 09:02:33;;;;;;;7.20;6.60;;;;;28.00;96450.00;;;;8407526;28;20238;-71
2022/07/30 09:06:39;;;;;;;6.65;6.05;;;;;28.20;96452.00;;;;8398920;28;20812;-71
2022/07/30 09:10:44;;;;;;;8.10;7.10;;;;;27.70;96461.00;;;;8396198;28;20326;-70
2022/07/30 09:15:03;;;;;;;9.15;6.90;;;;;27.90;96454.00;;;;8403884;28;20220;-71
2022/07/30 09:19:15;;;;;;;8.95;7.45;;;;;28.20;96459.00;;;;8397832;28;20237;-69
2022/07/30 09:23:19;;;;;;;7.82;7.03;;;;;28.10;96460.00;;;;8399252;28;20233;-70
2022/07/30 09:27:23;;;;;;;8.20;6.93;;;;;28.20;96458.00;;;;8395887;28;20229;-70
2022/07/30 09:31:26;;;;;;;7.63;5.82;;;;;28.50;96455.00;;;;8405804;28;20302;-73
2022/07/30 09:35:34;;;;;;;10.80;6.88;;;;;28.60;96460.00;;;;8404940;28;20219;-71
2022/07/30 09:39:41;;;;;;;9.02;7.82;;;;;29.00;96462.00;;;;8407644;28;20712;-74
2022/07/30 09:44:03;;;;;;;7.65;6.85;;;;;29.20;96453.00;;;;8368978;28;20253;-72
2022/07/30 09:48:21;;;;;;;10.63;7.10;;;;;29.90;96466.00;;;;8395449;28;20562;-74
2022/07/30 09:52:28;;;;;;;8.32;6.82;;;;;29.90;96464.00;;;;8399885;28;20231;-73
2022/07/30 09:56:33;;;;;;;6.95;5.63;;;;;29.60;96464.00;;;;8395103;28;20230;-75
2022/07/30 10:00:38;;;;;;;7.00;5.22;;;;;29.90;96467.00;;;;8404537;28;20325;-72
2022/07/30 10:04:44;;;;;;;5.70;5.30;;;;;29.50;96472.00;;;;8404384;28;20231;-76
2022/07/30 10:08:51;;;;;;;4.80;4.45;;;;;29.50;96457.00;;;;8401119;28;20637;-75
2022/07/30 10:12:58;;;;;;;6.03;5.53;;;;;30.60;96459.00;;;;8410763;28;20221;-72
2022/07/30 10:17:04;;;;;;;4.15;3.85;;;;;31.00;96456.00;;;;8374915;28;20802;-69
2022/07/30 10:21:08;;;;;;;4.47;3.95;;;;;29.50;96458.00;;;;8384677;28;20244;-71
2022/07/30 10:25:12;;;;;;;6.65;4.72;;;;;28.10;96455.00;;;;8397111;28;20215;-71
2022/07/30 10:29:21;;;;;;;6.75;4.20;;;;;28.10;96462.00;;;;8400804;28;20710;-72
2022/07/30 10:33:37;;;;;;;4.05;3.28;;;;;28.50;96440.00;;;;8386654;28;20220;-75
2022/07/30 10:37:46;;;;;;;3.50;3.20;;;;;29.90;96444.00;;;;8384955;28;20289;-72
2022/07/30 10:42:02;;;;;;;7.50;3.47;;;;;30.40;96448.00;;;;8396077;28;20277;-76
2022/07/30 10:51:45;;;;;;;4.82;3.90;;;;;29.10;96434.00;;;;8424290;28;20211;-69
2022/07/30 10:56:20;;;;;;;3.50;3.20;;;;;29.10;96442.00;;;;8425789;28;20235;-69
2022/07/30 11:00:58;;;;;;;3.30;3.03;;;;;28.70;96432.00;;;;8425201;28;20238;-68
2022/07/30 11:05:36;;;;;;;3.00;2.80;;;;;29.00;96432.00;;;;8423872;28;20314;-69
2022/07/30 11:10:34;;;;;;;3.63;2.80;;;;;29.50;96438.00;;;;8424666;28;20640;-68
2022/07/30 11:14:58;;;;;;;3.63;2.70;;;;;29.30;96428.00;;;;8431360;28;20552;-71
2022/07/30 11:19:33;;;;;;;2.50;2.40;;;;;28.90;96430.00;;;;8429994;28;20226;-70
2022/07/30 11:24:33;;;;;;;2.50;2.30;;;;;28.70;96431.00;;;;8431058;28;20223;-69
2022/07/30 11:29:32;;;;;;;2.28;2.17;;;;;29.30;96422.00;;;;8431641;28;20215;-71
2022/07/30 11:33:35;;;;;;;2.97;2.40;;;;;30.70;96422.00;;;;8431068;28;20218;-71
2022/07/30 11:38:14;;;;;;;4.25;2.80;;;;;31.70;96430.00;;;;8431252;28;20250;-70
2022/07/30 11:42:49;;;;;;;2.67;2.50;;;;;31.90;96416.00;;;;8430562;28;20306;-72
2022/07/30 11:47:27;;;;;;;2.50;2.30;;;;;32.80;96410.00;;;;8426447;28;20238;-71
2022/07/30 11:51:40;;;;;;;4.97;2.45;;;;;31.80;96429.00;;;;8430099;28;20294;-71
2022/07/30 11:55:46;;;;;;;3.63;2.55;;;;;31.50;96435.00;;;;8430647;28;20302;-71
2022/07/30 11:59:56;;;;;;;2.50;2.40;;;;;31.70;96437.00;;;;8430844;28;20261;-76
2022/07/30 12:09:27;;;;;;;3.15;2.50;;;;;32.40;96435.00;;;;8429322;28;20218;-73
2022/07/30 12:13:58;;;;;;;2.58;2.38;;;;;31.90;96439.00;;;;8430007;28;20687;-73
2022/07/30 12:18:22;;;;;;;2.35;2.22;;;;;31.10;96437.00;;;;8429913;28;20211;-72
2022/07/30 12:22:50;;;;;;;2.63;2.47;;;;;30.80;96459.00;;;;8424303;28;20651;-73
2022/07/30 12:27:28;;;;;;;2.92;2.72;;;;;30.10;96453.00;;;;8430267;28;20255;-73
2022/07/30 12:32:02;;;;;;;3.45;3.15;;;;;29.20;96458.00;;;;8428359;28;20310;-73
2022/07/30 12:36:39;;;;;;;5.38;3.00;;;;;28.20;96452.00;;;;8401380;28;20266;-73
2022/07/30 12:40:56;;;;;;;3.38;3.08;;;;;27.80;96448.00;;;;8429429;28;20215;-73
2022/07/30 12:45:00;;;;;;;4.30;3.28;;;;;27.80;96469.00;;;;8429015;28;20247;-73
2022/07/30 12:49:34;;;;;;;3.65;3.35;;;;;27.20;96454.00;;;;8427272;28;20211;-73
2022/07/30 12:54:12;;;;;;;3.63;2.70;;;;;27.00;96455.00;;;;8414886;28;20277;-73
2022/07/30 12:58:16;;;;;;;3.05;2.70;;;;;27.30;96443.00;;;;8418354;28;20211;-72
2022/07/30 13:02:32;;;;;;;4.72;2.95;;;;;27.50;96445.00;;;;8426795;28;20306;-72
2022/07/30 13:07:03;;;;;;;3.00;2.60;;;;;27.60;96457.00;;;;8403003;28;20700;-73
2022/07/30 13:11:37;;;;;;;2.83;2.53;;;;;28.00;96450.00;;;;8427458;28;20326;-72
2022/07/30 13:16:14;;;;;;;7.28;3.00;;;;;28.70;96467.00;;;;8427786;28;20306;-72
2022/07/30 13:20:53;;;;;;;4.40;3.00;;;;;28.40;96454.00;;;;8427161;28;20564;-71
2022/07/30 13:25:26;;;;;;;3.20;2.90;;;;;27.80;96452.00;;;;8427858;28;20294;-72
2022/07/30 13:30:04;;;;;;;6.03;3.42;;;;;27.30;96447.00;;;;8427811;28;20242;-72
2022/07/30 13:34:41;;;;;;;4.60;2.80;;;;;27.60;96449.00;;;;8426366;28;20215;-72
2022/07/30 13:39:19;;;;;;;3.08;2.78;;;;;28.40;96435.00;;;;8427658;28;20299;-71
2022/07/30 13:43:54;;;;;;;2.60;2.40;;;;;28.90;96424.00;;;;8426988;28;20226;-70
2022/07/30 13:48:31;;;;;;;2.47;2.38;;;;;29.20;96434.00;;;;8426600;28;20540;-70
2022/07/30 13:52:34;;;;;;;2.33;2.13;;;;;28.70;96446.00;;;;8427955;28;20302;-70
2022/07/30 13:57:12;;;;;;;2.28;2.13;;;;;28.10;96443.00;;;;8426544;28;20249;-71
2022/07/30 14:01:50;;;;;;;2.58;2.38;;;;;27.70;96444.00;;;;8426817;28;20636;-71
2022/07/30 14:06:25;;;;;;;4.93;2.70;;;;;27.60;96443.00;;;;8393071;28;20243;-71
2022/07/30 14:11:02;;;;;;;2.60;2.40;;;;;27.80;96441.00;;;;8392310;28;20323;-71
2022/07/30 14:15:39;;;;;;;7.85;2.60;;;;;27.90;96457.00;;;;8392381;28;20225;-70
2022/07/30 14:20:19;;;;;;;2.63;2.42;;;;;27.40;96462.00;;;;8393637;28;20568;-70
2022/07/30 14:24:56;;;;;;;5.25;3.08;;;;;26.70;96473.00;;;;8392926;28;20649;-70
2022/07/30 14:29:33;;;;;;;3.60;3.35;;;;;25.50;96464.00;;;;8392982;28;20295;-71
2022/07/30 14:34:10;;;;;;;3.70;2.95;;;;;23.80;96457.00;;;;8392731;28;20632;-70
2022/07/30 14:38:14;;;;;;;4.70;3.42;;;;;23.10;96437.00;;;;8392108;28;20291;-68
2022/07/30 14:42:48;;;;;;;7.53;3.95;;;;;22.80;96434.00;;;;8389048;28;20231;-69
2022/07/30 14:47:25;;;;;;;42.70;17.58;;;;;22.90;96439.00;;;;8397186;28;20222;-73
2022/07/30 14:51:51;;;;;;;4.22;3.58;;;;;23.20;96437.00;;;;8399304;28;20633;-72
2022/07/30 14:56:29;;;;;;;4.50;3.03;;;;;23.60;96439.00;;;;8398210;28;20298;-71
2022/07/30 15:01:06;;;;;;;8.52;3.20;;;;;24.10;96440.00;;;;8399567;28;20677;-73
2022/07/30 15:10:36;;;;;;;6.00;2.65;;;;;25.30;96443.00;;;;8432081;28;20710;-71
2022/07/30 15:15:12;;;;;;;3.22;2.92;;;;;26.00;96450.00;;;;8432193;28;20696;-71
2022/07/30 15:19:47;;;;;;;3.38;2.72;;;;;27.00;96451.00;;;;8430871;28;20238;-71
2022/07/30 15:24:23;;;;;;;7.90;2.97;;;;;28.10;96454.00;;;;8431184;28;20264;-71
2022/07/30 15:28:59;;;;;;;3.17;2.97;;;;;28.30;96452.00;;;;8430971;28;20211;-71
2022/07/30 15:33:41;;;;;;;3.80;3.05;;;;;28.50;96453.00;;;;8432043;28;20306;-70
2022/07/30 15:37:44;;;;;;;6.90;2.90;;;;;28.60;96457.00;;;;8430997;28;20613;-70
2022/07/30 15:42:21;;;;;;;5.20;2.80;;;;;29.00;96467.00;;;;8431089;28;20227;-70
2022/07/30 15:46:58;;;;;;;6.13;2.90;;;;;29.30;96464.00;;;;8431266;28;20602;-70
2022/07/30 15:51:04;;;;;;;8.77;3.33;;;;;28.70;96471.00;;;;8429934;28;20306;-68
2022/07/30 15:55:38;;;;;;;5.32;3.10;;;;;27.90;96467.00;;;;8431431;28;20301;-68
2022/07/30 16:00:14;;;;;;;3.05;2.85;;;;;27.50;96473.00;;;;8430899;28;20219;-68
2022/07/30 16:04:50;;;;;;;3.70;3.10;;;;;26.90;96475.00;;;;8429299;28;20227;-68
2022/07/30 16:09:30;;;;;;;6.97;3.45;;;;;26.70;96474.00;;;;8429519;28;20290;-69
2022/07/30 16:13:33;;;;;;;4.05;2.90;;;;;27.00;96467.00;;;;8430692;28;20219;-69
2022/07/30 16:17:36;;;;;;;6.68;3.30;;;;;26.90;96483.00;;;;8429465;28;20306;-68
2022/07/30 16:22:13;;;;;;;3.45;3.00;;;;;26.90;96489.00;;;;8430571;28;20639;-68
2022/07/30 16:26:50;;;;;;;7.30;3.40;;;;;26.90;96475.00;;;;8430140;28;20268;-68
2022/07/30 16:31:27;;;;;;;6.57;3.38;;;;;26.80;96492.00;;;;8429007;28;20303;-68
2022/07/30 16:36:04;;;;;;;3.83;3.28;;;;;26.70;96503.00;;;;8429276;28;20239;-69
2022/07/30 16:40:41;;;;;;;5.95;3.03;;;;;27.10;96502.00;;;;8429963;28;20219;-69
2022/07/30 16:45:19;;;;;;;3.40;3.10;;;;;27.30;96496.00;;;;8428891;28;20227;-66
2022/07/30 16:49:53;;;;;;;4.32;3.03;;;;;27.10;96505.00;;;;8428080;28;20302;-70
2022/07/30 16:54:30;;;;;;;6.85;2.83;;;;;27.00;96504.00;;;;8429563;28;20306;-70
2022/07/30 16:59:05;;;;;;;4.95;3.00;;;;;27.00;96504.00;;;;8428824;28;20329;-69
2022/07/30 17:03:42;;;;;;;9.43;3.08;;;;;27.00;96502.00;;;;8428909;28;20306;-68
2022/07/30 17:07:46;;;;;;;6.15;3.17;;;;;26.60;96511.00;;;;8428204;28;20302;-68
2022/07/30 17:12:20;;;;;;;3.88;3.20;;;;;26.60;96513.00;;;;8428991;28;20219;-68
2022/07/30 17:16:27;;;;;;;3.90;3.00;;;;;26.90;96519.00;;;;8428172;28;20219;-68
2022/07/30 17:20:32;;;;;;;3.60;3.22;;;;;26.70;96520.00;;;;8428858;28;20226;-68
2022/07/30 17:24:36;;;;;;;5.40;3.08;;;;;26.60;96535.00;;;;8429313;28;20302;-68
2022/07/30 17:29:13;;;;;;;4.13;3.15;;;;;26.50;96525.00;;;;8428759;28;20215;-68
2022/07/30 17:33:17;;;;;;;8.30;3.42;;;;;26.30;96527.00;;;;8421790;28;20215;-68
2022/07/30 17:37:55;;;;;;;3.53;3.22;;;;;26.30;96522.00;;;;8428914;28;20306;-68
2022/07/30 17:41:58;;;;;;;8.45;3.35;;;;;26.10;96524.00;;;;8428256;28;20233;-68
2022/07/30 17:46:35;;;;;;;5.43;2.90;;;;;26.10;96519.00;;;;8426983;28;20218;-68
2022/07/30 17:51:12;;;;;;;5.05;3.00;;;;;26.10;96525.00;;;;8427313;28;20227;-68
2022/07/30 17:55:51;;;;;;;3.30;3.03;;;;;25.90;96528.00;;;;8428459;28;20685;-68
2022/07/30 18:00:27;;;;;;;4.00;3.10;;;;;25.50;96525.00;;;;8426999;28;20716;-68
2022/07/30 18:04:30;;;;;;;7.53;3.42;;;;;24.90;96521.00;;;;8427068;28;20553;-68
2022/07/30 18:08:34;;;;;;;6.43;4.15;;;;;24.40;96524.00;;;;8420687;28;20361;-68
2022/07/30 18:13:12;;;;;;;3.50;2.92;;;;;23.90;96531.00;;;;8427212;28;20305;-71
2022/07/30 18:17:30;;;;;;;3.40;3.10;;;;;23.50;96532.00;;;;8427533;28;20521;-71
2022/07/30 18:21:35;;;;;;;5.88;3.58;;;;;23.30;96530.00;;;;8433841;28;20223;-72
2022/07/30 18:25:40;;;;;;;3.40;3.10;;;;;23.10;96530.00;;;;8439123;28;20227;-71
2022/07/30 18:29:55;;;;;;;5.25;2.92;;;;;22.90;96537.00;;;;8438336;28;20245;-71
2022/07/30 18:34:00;;;;;;;11.48;3.75;;;;;22.80;96539.00;;;;8438347;28;20579;-71
2022/07/30 18:38:34;;;;;;;2.97;2.72;;;;;22.60;96536.00;;;;8438240;28;20302;-71
2022/07/30 18:43:11;;;;;;;4.47;2.95;;;;;22.40;96540.00;;;;8438262;28;20302;-71
2022/07/30 18:47:17;;;;;;;5.93;2.90;;;;;22.30;96539.00;;;;8437141;28;20309;-70
2022/07/30 18:51:24;;;;;;;4.65;3.22;;;;;22.20;96548.00;;;;8438433;28;20215;-71
2022/07/30 18:56:00;;;;;;;3.33;2.88;;;;;22.10;96545.00;;;;8438172;28;20227;-70
2022/07/30 19:00:41;;;;;;;4.78;3.10;;;;;21.90;96558.00;;;;8437131;28;20294;-71
2022/07/30 19:04:51;;;;;;;3.10;2.80;;;;;21.80;96560.00;;;;8437275;28;20737;-70
2022/07/30 19:08:58;;;;;;;3.38;3.08;;;;;21.70;96563.00;;;;8404755;28;20220;-70
2022/07/30 19:13:32;;;;;;;4.85;3.35;;;;;21.50;96563.00;;;;8404685;28;20295;-70
2022/07/30 19:17:35;;;;;;;5.68;3.17;;;;;21.40;96571.00;;;;8402144;28;20216;-70
2022/07/30 19:22:09;;;;;;;5.07;3.30;;;;;21.30;96571.00;;;;8371228;28;20225;-70
2022/07/30 19:26:15;;;;;;;3.85;3.20;;;;;21.10;96572.00;;;;8371511;28;20223;-70
2022/07/30 19:30:49;;;;;;;6.25;3.42;;;;;21.00;96573.00;;;;8370265;28;20302;-70
2022/07/30 19:34:53;;;;;;;5.63;3.63;;;;;20.90;96574.00;;;;8364748;28;21405;-70
2022/07/30 19:39:27;;;;;;;3.95;3.13;;;;;20.90;96575.00;;;;8365473;28;20311;-70
2022/07/30 19:43:31;;;;;;;5.25;3.10;;;;;20.80;96580.00;;;;8365834;28;20239;-70
2022/07/30 19:48:08;;;;;;;5.53;3.60;;;;;20.60;96589.00;;;;8364328;28;20266;-70
2022/07/30 19:52:43;;;;;;;6.47;3.42;;;;;20.30;96588.00;;;;8362441;28;20217;-70
2022/07/30 19:57:06;;;;;;;4.43;3.47;;;;;20.00;96591.00;;;;8364214;28;20600;-69
2022/07/30 20:01:13;;;;;;;4.50;4.10;;;;;19.80;96582.00;;;;8364511;28;20217;-68
2022/07/30 20:05:43;;;;;;;5.40;3.92;;;;;19.60;96589.00;;;;8367990;28;20698;-69
2022/07/30 20:10:19;;;;;;;4.60;4.20;;;;;19.30;96584.00;;;;8397113;28;20238;-68
2022/07/30 20:14:54;;;;;;;6.07;4.45;;;;;19.10;96593.00;;;;8397497;28;20664;-69
2022/07/30 20:18:59;;;;;;;6.55;3.92;;;;;18.90;96592.00;;;;8397508;28;20243;-69
2022/07/30 20:23:05;;;;;;;5.80;4.22;;;;;18.80;96594.00;;;;8396584;28;20668;-70
2022/07/30 20:27:42;;;;;;;5.03;4.50;;;;;18.60;96599.00;;;;8396506;28;20302;-69
2022/07/30 20:31:45;;;;;;;6.10;4.28;;;;;18.50;96597.00;;;;8396922;28;20262;-68
2022/07/30 20:36:23;;;;;;;6.70;4.30;;;;;18.40;96593.00;;;;8396422;28;20228;-67
2022/07/30 20:40:57;;;;;;;5.47;3.78;;;;;18.20;96595.00;;;;8395768;28;20222;-67
2022/07/30 20:45:35;;;;;;;4.55;4.15;;;;;18.20;96594.00;;;;8395564;28;20274;-67
2022/07/30 20:50:11;;;;;;;4.70;4.30;;;;;18.10;96593.00;;;;8396686;28;20545;-67
2022/07/30 20:54:48;;;;;;;4.88;4.10;;;;;17.90;96602.00;;;;8395646;28;20220;-68
2022/07/30 20:58:51;;;;;;;5.88;4.60;;;;;17.90;96600.00;;;;8396148;28;20246;-69
2022/07/30 21:02:57;;;;;;;6.97;4.22;;;;;17.90;96594.00;;;;8395680;28;20569;-68
2022/07/30 21:07:05;;;;;;;6.60;4.00;;;;;17.90;96600.00;;;;8395566;28;20234;-67
2022/07/30 21:11:10;;;;;;;7.00;4.07;;;;;17.80;96602.00;;;;8395737;28;20302;-66
2022/07/30 21:15:15;;;;;;;4.90;4.30;;;;;17.70;96607.00;;;;8394985;28;20220;-67
2022/07/30 21:19:50;;;;;;;6.05;4.38;;;;;17.60;96611.00;;;;8395985;28;20227;-67
2022/07/30 21:23:53;;;;;;;6.10;4.88;;;;;17.50;96615.00;;;;8395128;28;20307;-67
2022/07/30 21:27:58;;;;;;;5.00;4.50;;;;;17.40;96604.00;;;;8395201;28;20265;-67